To NAV CANADA Home Page Login to a new session Search on AWWS site Feedback and Comments Disclaimer Vers la page française équivalente Tips FAQ What's new on the site To the Forecasts and Observations / NOTAM section To "File a Flight Plan" website Publications and other links Update of the User's profile FIC Telephone Numbers My Weather Data Folder Route Weather Data Regional Weather Data Local Weather Data To the Forecasts and Observations / NOTAM section
Request Generated 06/26/2017 at 22:20:55 UTC . Weather information available at that time is displayed.

METAR/TAF

WHITEHORSE/ERIK NIELSEN INTL/YT    

METAR CYXY 262200Z 36006KT 330V070 40SM FEW065TCU SCT095 19/05 A2980
RMK TCU2AC2 SLP106 DENSITY ALT 3500FT=
METAR CYXY 262100Z 03004G15KT 40SM VCSH BKN064TCU BKN095 19/06 A2981
RMK TCU5AC2 SLP108 DENSITY ALT 3500FT=
METAR CYXY 262000Z 34004KT 290V070 40SM VCSH BKN062TCU BKN083 19/04
A2981 RMK TCU5AC1 OBS TAKEN +14 SLP109 DENSITY ALT 3500FT=

TAF CYXY 261738Z 2618/2718 35008KT P6SM SCT060 BKN100 TEMPO 2619/2704
P6SM -SHRA BKN060 PROB30 2621/2704 VRB15G25KT 6SM TSRA BKN060CB
FM270400 17010KT P6SM BKN080
FM271500 35007KT P6SM BKN080
RMK NXT FCST BY 270000Z=
Your time UTC time
Weather data provided by Environment Canada and NAV CANADA